Time;durP1;ratioP1;P1;durP2;ratioP2;P2;SDS_P1;SDS_P2;PMS_P1;PMS_P2;Temp;Humidity;BMP_temperature;BMP_pressure;BME280_temperature;BME280_humidity;BME280_pressure;Samples;Min_cycle;Max_cycle;Signal;HPM_P1;HPM_P2
2022/03/10 00:00:04;;;;;;;13.93;11.10;;;5.20;22.50;;;;;;10296705;28;20655;-69
2022/03/10 00:05:10;;;;;;;22.17;15.43;;;5.20;22.40;;;;;;10304375;28;20848;-69
2022/03/10 00:10:15;;;;;;;15.80;11.30;;;5.20;22.60;;;;;;10304778;28;20235;-69
2022/03/10 00:15:21;;;;;;;15.83;11.60;;;5.10;22.50;;;;;;10307672;28;21483;-70
2022/03/10 00:20:24;;;;;;;15.73;10.50;;;5.00;22.40;;;;;;10306261;28;20235;-70
2022/03/10 00:25:29;;;;;;;11.90;9.33;;;4.90;22.20;;;;;;10303697;28;20242;-70
2022/03/10 00:30:32;;;;;;;8.47;7.53;;;4.80;22.50;;;;;;10309618;28;20235;-70
2022/03/10 00:35:36;;;;;;;9.33;8.33;;;4.80;22.50;;;;;;10306075;28;20313;-70
2022/03/10 00:40:40;;;;;;;8.77;7.87;;;4.80;22.60;;;;;;10309294;28;20326;-73
2022/03/10 00:45:44;;;;;;;13.70;10.17;;;4.80;22.80;;;;;;10303853;28;20306;-72
2022/03/10 00:50:47;;;;;;;12.63;10.20;;;4.70;22.60;;;;;;10304543;28;20592;-73
2022/03/10 00:55:52;;;;;;;11.33;10.07;;;4.60;22.40;;;;;;10305297;28;20698;-73
2022/03/10 01:00:55;;;;;;;11.30;9.23;;;4.40;22.50;;;;;;10305019;28;20587;-73
2022/03/10 01:05:59;;;;;;;8.07;7.23;;;4.30;22.60;;;;;;10304596;28;20245;-73
2022/03/10 01:11:03;;;;;;;8.40;7.50;;;4.20;22.80;;;;;;10300558;28;20237;-71
2022/03/10 01:16:07;;;;;;;10.37;9.03;;;4.10;22.90;;;;;;10302223;28;20319;-72
2022/03/10 01:21:10;;;;;;;7.90;7.10;;;4.10;23.00;;;;;;10293593;28;20227;-70
2022/03/10 01:26:15;;;;;;;10.30;8.43;;;4.20;23.00;;;;;;10296841;28;20250;-70
2022/03/10 01:31:18;;;;;;;8.07;7.10;;;4.10;23.10;;;;;;10301917;28;20236;-70
2022/03/10 01:36:21;;;;;;;7.57;6.53;;;4.20;23.10;;;;;;10293078;28;20821;-70
2022/03/10 01:41:26;;;;;;;10.13;7.83;;;4.10;22.90;;;;;;10295384;28;20222;-70
2022/03/10 01:46:29;;;;;;;8.23;7.40;;;4.10;23.20;;;;;;10288308;28;20231;-70
2022/03/10 01:51:34;;;;;;;8.07;6.90;;;4.00;23.10;;;;;;10295890;28;20663;-70
2022/03/10 01:56:39;;;;;;;7.93;6.97;;;4.00;23.30;;;;;;10295717;28;20323;-70
2022/03/10 02:01:42;;;;;;;8.67;7.77;;;4.00;23.30;;;;;;10293660;28;20232;-70
2022/03/10 02:06:46;;;;;;;7.47;6.70;;;4.00;23.20;;;;;;10290111;28;20708;-70
2022/03/10 02:11:51;;;;;;;8.97;8.07;;;4.00;23.20;;;;;;10296691;28;20232;-70
2022/03/10 02:22:17;;;;;;;11.23;8.33;;;4.00;23.10;;;;;;10294576;28;20286;-70
2022/03/10 02:27:22;;;;;;;8.07;7.27;;;3.80;23.20;;;;;;10302297;28;20235;-70
2022/03/10 02:32:25;;;;;;;9.17;8.03;;;3.80;23.10;;;;;;10301465;28;20235;-70
2022/03/10 02:37:30;;;;;;;9.33;8.33;;;3.70;23.10;;;;;;10298158;28;20593;-70
2022/03/10 02:42:34;;;;;;;9.47;7.90;;;3.60;23.20;;;;;;10300279;28;20234;-70
2022/03/10 02:47:37;;;;;;;8.13;7.33;;;3.50;23.00;;;;;;10297474;28;20235;-70
2022/03/10 02:52:44;;;;;;;7.57;6.77;;;3.40;23.40;;;;;;10297569;28;20730;-70
2022/03/10 02:57:47;;;;;;;8.67;7.57;;;3.30;23.60;;;;;;10297508;28;20739;-70
2022/03/10 03:02:50;;;;;;;11.27;8.03;;;3.30;23.50;;;;;;10299658;28;20230;-70
2022/03/10 03:07:56;;;;;;;9.70;7.70;;;3.30;23.60;;;;;;10295671;28;20246;-69
2022/03/10 03:12:59;;;;;;;9.20;7.50;;;3.30;23.70;;;;;;10299721;28;20223;-69
2022/03/10 03:18:02;;;;;;;8.53;7.67;;;3.30;23.60;;;;;;10297091;28;20237;-69
2022/03/10 03:23:07;;;;;;;8.17;7.03;;;3.20;23.60;;;;;;10301641;28;20230;-69
2022/03/10 03:28:10;;;;;;;9.77;8.30;;;3.20;23.70;;;;;;10298555;28;20731;-69
2022/03/10 03:33:13;;;;;;;9.10;7.17;;;3.30;23.50;;;;;;10304293;28;20231;-69
2022/03/10 03:38:17;;;;;;;8.47;7.30;;;3.20;23.60;;;;;;10310851;28;20237;-69
2022/03/10 03:43:20;;;;;;;8.20;7.00;;;3.20;23.70;;;;;;10308140;28;20233;-69
2022/03/10 03:48:24;;;;;;;8.37;7.57;;;3.10;23.50;;;;;;10311011;28;20230;-69
2022/03/10 03:53:29;;;;;;;8.90;7.27;;;3.10;23.60;;;;;;10306867;28;20223;-69
2022/03/10 03:58:32;;;;;;;9.13;7.10;;;3.10;23.60;;;;;;10306581;28;20235;-69
2022/03/10 04:03:35;;;;;;;6.97;6.03;;;3.10;23.50;;;;;;10307428;28;20257;-70
2022/03/10 04:08:40;;;;;;;7.47;6.63;;;3.00;23.50;;;;;;10302832;28;20327;-70
2022/03/10 04:13:43;;;;;;;7.83;6.93;;;3.00;23.60;;;;;;10305841;28;20726;-70
2022/03/10 04:18:46;;;;;;;9.30;7.53;;;3.00;23.50;;;;;;10309965;28;20241;-70
2022/03/10 04:23:50;;;;;;;8.30;7.47;;;3.00;23.50;;;;;;10304735;28;20727;-70
2022/03/10 04:28:55;;;;;;;8.40;5.87;;;2.90;23.70;;;;;;10308488;28;20754;-70
2022/03/10 04:33:58;;;;;;;8.13;6.90;;;2.90;23.60;;;;;;10307991;28;20299;-70
2022/03/10 04:39:02;;;;;;;11.17;7.13;;;3.00;23.80;;;;;;10304801;28;20227;-70
2022/03/10 04:44:06;;;;;;;6.57;5.93;;;3.00;24.00;;;;;;10306520;28;20230;-70
2022/03/10 04:49:10;;;;;;;7.27;6.33;;;2.80;23.80;;;;;;10303990;28;20231;-70
2022/03/10 04:54:15;;;;;;;7.20;6.37;;;2.90;23.90;;;;;;10308419;28;20233;-70
2022/03/10 04:59:18;;;;;;;6.97;6.03;;;2.70;24.00;;;;;;10310512;28;20245;-70
2022/03/10 05:04:21;;;;;;;7.50;6.43;;;2.80;23.90;;;;;;10303123;28;20595;-70
2022/03/10 05:09:25;;;;;;;8.60;6.60;;;2.70;23.90;;;;;;10307867;28;20227;-70
2022/03/10 05:14:29;;;;;;;7.77;6.70;;;2.60;24.10;;;;;;10301259;28;20306;-69
2022/03/10 05:19:32;;;;;;;7.33;6.10;;;2.60;24.00;;;;;;10297837;28;20742;-69
2022/03/10 05:24:36;;;;;;;8.10;6.73;;;2.60;24.00;;;;;;10296803;28;20235;-69
2022/03/10 05:29:40;;;;;;;8.80;8.00;;;2.50;24.30;;;;;;10298776;28;20237;-69
2022/03/10 05:34:44;;;;;;;10.07;7.57;;;2.40;24.30;;;;;;10299134;28;20223;-70
2022/03/10 05:39:48;;;;;;;7.90;6.90;;;2.40;24.30;;;;;;10294551;28;20227;-70
2022/03/10 05:44:51;;;;;;;10.63;9.30;;;2.40;24.30;;;;;;10298983;28;21058;-70
2022/03/10 05:49:55;;;;;;;23.47;17.67;;;2.30;24.20;;;;;;10304843;28;20604;-70
2022/03/10 05:55:00;;;;;;;14.67;11.80;;;2.30;24.20;;;;;;10306551;28;20605;-69
2022/03/10 06:00:03;;;;;;;10.47;8.53;;;2.30;24.20;;;;;;10304135;28;20219;-69
2022/03/10 06:05:07;;;;;;;9.80;8.80;;;2.20;24.10;;;;;;10310756;28;20897;-69
2022/03/10 06:10:12;;;;;;;9.37;8.40;;;2.10;24.10;;;;;;10306694;28;20635;-69
2022/03/10 06:15:15;;;;;;;7.80;7.03;;;2.00;24.00;;;;;;10307856;28;20249;-71
2022/03/10 06:20:19;;;;;;;9.97;8.40;;;2.00;24.00;;;;;;10308499;28;20241;-70
2022/03/10 06:25:23;;;;;;;9.07;8.13;;;2.00;24.00;;;;;;10303388;28;20916;-69
2022/03/10 06:30:26;;;;;;;9.13;7.90;;;1.90;24.60;;;;;;10301442;28;20230;-68
2022/03/10 06:35:30;;;;;;;9.00;7.57;;;1.80;24.60;;;;;;10302512;28;20227;-69
2022/03/10 06:40:34;;;;;;;10.40;7.53;;;1.80;24.80;;;;;;10311356;28;20226;-68
2022/03/10 06:45:37;;;;;;;9.00;7.87;;;1.90;25.00;;;;;;10310635;28;20242;-69
2022/03/10 06:50:41;;;;;;;11.03;7.67;;;1.90;25.00;;;;;;10306004;28;20238;-69
2022/03/10 06:55:45;;;;;;;8.20;7.37;;;2.00;25.00;;;;;;10304768;28;20223;-69
2022/03/10 07:00:48;;;;;;;12.57;8.60;;;2.00;25.20;;;;;;10304980;28;20246;-69
2022/03/10 07:05:56;;;;;;;13.97;10.17;;;2.10;25.60;;;;;;10300679;28;20581;-72
2022/03/10 07:11:01;;;;;;;18.63;11.53;;;2.20;25.40;;;;;;10302525;28;20608;-72
2022/03/10 07:16:04;;;;;;;14.00;9.50;;;2.20;25.60;;;;;;10310048;28;20229;-72
2022/03/10 07:21:08;;;;;;;14.63;10.17;;;2.30;25.50;;;;;;10309791;28;20238;-73
2022/03/10 07:26:13;;;;;;;13.13;7.97;;;2.40;25.50;;;;;;10305213;28;20231;-72
2022/03/10 07:31:16;;;;;;;8.60;7.70;;;2.50;25.70;;;;;;10306791;28;20223;-73
2022/03/10 07:36:20;;;;;;;8.40;7.50;;;2.70;25.70;;;;;;10301923;28;20253;-73
2022/03/10 07:41:25;;;;;;;10.33;7.93;;;2.70;25.60;;;;;;10304162;28;20691;-73
2022/03/10 07:46:28;;;;;;;11.03;8.67;;;2.90;26.10;;;;;;10303799;28;20242;-72
2022/03/10 07:51:32;;;;;;;10.50;8.10;;;3.00;26.00;;;;;;10301829;28;20215;-71
2022/03/10 07:56:39;;;;;;;10.23;8.37;;;3.10;26.10;;;;;;10303434;28;20231;-72
2022/03/10 08:01:42;;;;;;;8.57;7.63;;;3.30;26.40;;;;;;10303981;28;20232;-71
2022/03/10 08:06:46;;;;;;;9.77;7.93;;;3.50;26.40;;;;;;10298087;28;20237;-71
2022/03/10 08:11:50;;;;;;;8.37;7.57;;;3.70;26.50;;;;;;10297514;28;20223;-72
2022/03/10 08:16:54;;;;;;;9.70;7.70;;;4.00;26.80;;;;;;10302002;28;20227;-72
2022/03/10 08:21:58;;;;;;;9.63;8.03;;;4.40;26.90;;;;;;10306919;28;20224;-71
2022/03/10 08:27:03;;;;;;;10.83;8.10;;;4.70;27.10;;;;;;10306159;28;21180;-70
2022/03/10 08:32:07;;;;;;;9.50;8.27;;;5.10;27.40;;;;;;10307173;28;20753;-71
2022/03/10 08:37:10;;;;;;;8.03;7.23;;;5.50;27.30;;;;;;10305178;28;20227;-69
2022/03/10 08:42:15;;;;;;;8.83;7.37;;;5.80;27.10;;;;;;10304916;28;20224;-69
2022/03/10 08:47:18;;;;;;;9.80;8.00;;;6.20;27.10;;;;;;10299441;28;20231;-69
2022/03/10 08:52:21;;;;;;;10.17;8.00;;;6.50;26.90;;;;;;10302442;28;20223;-69
2022/03/10 08:57:25;;;;;;;8.67;7.87;;;6.90;27.10;;;;;;10304505;28;21060;-69
2022/03/10 09:02:29;;;;;;;8.70;7.80;;;7.30;27.40;;;;;;10301196;28;20222;-70
2022/03/10 09:07:33;;;;;;;8.40;7.60;;;7.60;26.90;;;;;;10301812;28;20234;-69
2022/03/10 09:12:41;;;;;;;8.50;7.67;;;8.00;27.00;;;;;;10301535;28;20237;-70
2022/03/10 09:17:44;;;;;;;7.40;6.57;;;8.50;26.90;;;;;;10303990;28;20234;-70
2022/03/10 09:22:47;;;;;;;7.20;6.50;;;8.90;26.50;;;;;;10304019;28;20223;-70
2022/03/10 09:27:52;;;;;;;7.50;6.63;;;9.50;26.30;;;;;;10301909;28;20231;-72
2022/03/10 09:32:57;;;;;;;7.37;6.53;;;10.00;25.00;;;;;;10299635;28;20231;-72
2022/03/10 09:38:01;;;;;;;8.60;6.93;;;10.50;24.90;;;;;;10299311;28;20226;-72
2022/03/10 09:43:05;;;;;;;7.23;6.53;;;10.90;24.50;;;;;;10306668;28;20233;-72
2022/03/10 09:48:11;;;;;;;6.97;6.27;;;11.30;24.40;;;;;;10300806;28;20655;-71
2022/03/10 09:53:14;;;;;;;8.30;6.47;;;11.60;24.20;;;;;;10299389;28;20231;-72
2022/03/10 09:58:19;;;;;;;7.40;6.70;;;11.90;23.70;;;;;;10303413;28;20227;-72
2022/03/10 10:03:22;;;;;;;7.10;6.40;;;12.20;23.30;;;;;;10297773;28;20801;-72
2022/03/10 10:08:26;;;;;;;7.07;6.37;;;12.50;22.80;;;;;;10302617;28;20467;-72
2022/03/10 10:13:31;;;;;;;8.63;6.67;;;12.70;22.40;;;;;;10297710;28;20227;-72
2022/03/10 10:18:36;;;;;;;7.10;6.40;;;12.90;22.30;;;;;;10301847;28;20727;-72
2022/03/10 10:23:49;;;;;;;6.33;5.73;;;13.10;21.90;;;;;;10303187;28;20252;-72
2022/03/10 10:28:55;;;;;;;6.97;6.37;;;13.30;21.90;;;;;;10296705;28;20235;-72
2022/03/10 10:34:01;;;;;;;6.93;6.23;;;13.50;22.10;;;;;;10300308;28;20625;-72
2022/03/10 10:39:11;;;;;;;6.47;5.90;;;13.60;22.00;;;;;;10300407;28;20259;-71
2022/03/10 10:44:20;;;;;;;7.20;6.60;;;13.90;21.20;;;;;;10304577;28;20227;-70
2022/03/10 10:49:23;;;;;;;6.07;5.57;;;14.10;21.30;;;;;;10307284;28;20238;-71
2022/03/10 10:54:31;;;;;;;6.93;5.70;;;14.20;21.40;;;;;;10306597;28;20227;-71
2022/03/10 10:59:37;;;;;;;6.53;5.87;;;14.40;21.50;;;;;;10308613;28;20273;-72
2022/03/10 11:04:43;;;;;;;5.27;4.77;;;14.40;20.60;;;;;;10304435;28;20251;-72
2022/03/10 11:09:48;;;;;;;6.10;5.43;;;14.60;20.90;;;;;;10300422;28;20231;-72
2022/03/10 11:14:53;;;;;;;7.17;5.30;;;14.70;20.60;;;;;;10304572;28;20782;-73
2022/03/10 11:19:57;;;;;;;5.70;4.93;;;14.80;20.20;;;;;;10307039;28;20228;-72
2022/03/10 11:25:17;;;;;;;5.70;5.20;;;14.90;20.30;;;;;;10304896;28;20223;-72
2022/03/10 11:30:24;;;;;;;5.63;5.13;;;14.90;18.70;;;;;;10303558;28;20601;-72
2022/03/10 11:35:31;;;;;;;4.90;4.50;;;14.90;19.20;;;;;;10307702;28;20761;-72
2022/03/10 11:40:48;;;;;;;5.47;4.97;;;15.00;18.90;;;;;;10303582;28;20719;-72
2022/03/10 11:46:13;;;;;;;6.33;5.70;;;15.00;18.30;;;;;;10306432;28;20230;-72
2022/03/10 11:51:22;;;;;;;6.70;6.00;;;15.10;19.40;;;;;;10306429;28;20226;-72
2022/03/10 11:56:57;;;;;;;5.80;5.20;;;15.20;19.20;;;;;;10312306;28;20229;-72
2022/03/10 12:02:03;;;;;;;6.13;5.53;;;15.20;17.60;;;;;;10310657;28;20589;-72
2022/03/10 12:07:08;;;;;;;7.83;5.83;;;15.30;18.80;;;;;;10303292;28;20258;-72
2022/03/10 12:12:16;;;;;;;7.37;6.53;;;15.20;18.70;;;;;;10304001;28;20233;-72
2022/03/10 12:17:54;;;;;;;10.37;6.90;;;15.20;17.70;;;;;;10300702;28;20230;-72
2022/03/10 12:23:12;;;;;;;7.67;6.87;;;15.20;17.60;;;;;;10301122;28;20250;-72
2022/03/10 12:28:34;;;;;;;6.70;6.00;;;15.20;17.00;;;;;;10309822;28;20304;-72
2022/03/10 12:33:46;;;;;;;7.23;6.53;;;15.20;17.90;;;;;;10308520;28;20247;-70
2022/03/10 12:38:50;;;;;;;7.13;6.43;;;15.20;18.10;;;;;;10306832;28;20230;-70
2022/03/10 12:43:54;;;;;;;6.67;6.07;;;15.20;18.60;;;;;;10307427;28;20218;-71
2022/03/10 12:49:05;;;;;;;7.10;6.50;;;15.30;18.20;;;;;;10308259;28;20227;-70
2022/03/10 12:54:09;;;;;;;6.20;5.60;;;15.30;17.30;;;;;;10303975;28;20333;-70
2022/03/10 12:59:13;;;;;;;8.00;6.30;;;15.30;17.60;;;;;;10300404;28;20224;-70
2022/03/10 13:04:17;;;;;;;6.60;6.00;;;15.30;17.60;;;;;;10299688;28;20664;-70
2022/03/10 13:09:24;;;;;;;7.63;6.90;;;15.30;17.40;;;;;;10306653;28;20238;-70
2022/03/10 13:14:29;;;;;;;7.40;6.70;;;15.30;17.10;;;;;;10302017;28;20227;-70
2022/03/10 13:19:41;;;;;;;7.30;6.70;;;15.30;17.80;;;;;;10307038;28;20254;-70
2022/03/10 13:24:46;;;;;;;7.57;6.87;;;15.40;16.70;;;;;;10301547;28;20250;-70
2022/03/10 13:29:52;;;;;;;7.70;7.00;;;15.30;17.10;;;;;;10306431;28;20231;-70
2022/03/10 13:35:00;;;;;;;6.43;5.80;;;15.30;17.00;;;;;;10305452;28;20310;-70
2022/03/10 13:40:04;;;;;;;6.70;5.70;;;15.30;16.10;;;;;;10304937;28;20630;-70
2022/03/10 13:45:09;;;;;;;6.03;5.47;;;15.30;17.00;;;;;;10306385;28;20238;-70
2022/03/10 13:50:13;;;;;;;7.00;6.30;;;15.30;16.70;;;;;;10302164;28;20229;-69
2022/03/10 13:55:16;;;;;;;6.93;5.23;;;15.40;16.50;;;;;;10306723;28;20223;-68
2022/03/10 14:00:26;;;;;;;5.40;4.90;;;15.40;16.80;;;;;;10304356;28;20235;-69
2022/03/10 14:05:40;;;;;;;6.03;5.43;;;15.50;15.10;;;;;;10310770;28;20329;-69
2022/03/10 14:10:43;;;;;;;7.30;5.60;;;15.50;15.10;;;;;;10306401;28;20240;-69
2022/03/10 14:15:50;;;;;;;5.80;4.60;;;15.50;16.10;;;;;;10308244;28;20231;-68
2022/03/10 14:20:58;;;;;;;5.37;4.87;;;15.50;16.40;;;;;;10307797;28;20923;-68
2022/03/10 14:26:10;;;;;;;4.67;4.27;;;15.60;15.40;;;;;;10308491;28;20219;-69
2022/03/10 14:31:15;;;;;;;4.30;3.87;;;15.60;14.50;;;;;;10314891;28;20577;-70
2022/03/10 14:36:21;;;;;;;4.13;3.83;;;15.70;15.50;;;;;;10308666;28;20222;-70
2022/03/10 14:41:26;;;;;;;4.20;3.90;;;15.60;14.60;;;;;;10309220;28;20223;-70
2022/03/10 14:46:29;;;;;;;4.30;3.90;;;15.70;15.00;;;;;;10306996;28;20237;-70
2022/03/10 14:51:35;;;;;;;4.20;3.90;;;15.70;14.90;;;;;;10306888;28;20711;-70
2022/03/10 14:56:43;;;;;;;4.40;4.00;;;15.70;14.40;;;;;;10307127;28;20235;-70
2022/03/10 15:01:46;;;;;;;4.07;3.77;;;15.70;14.50;;;;;;10303431;28;20225;-71
2022/03/10 15:06:51;;;;;;;4.33;3.93;;;15.70;14.70;;;;;;10305464;28;20676;-71
2022/03/10 15:12:15;;;;;;;4.27;3.87;;;15.70;13.70;;;;;;10308869;28;20228;-71
2022/03/10 15:17:23;;;;;;;4.13;3.73;;;15.70;14.20;;;;;;10308877;28;20227;-71
2022/03/10 15:22:28;;;;;;;3.70;3.40;;;15.70;14.20;;;;;;10305176;28;20358;-70
2022/03/10 15:27:31;;;;;;;5.97;4.10;;;15.60;14.00;;;;;;10308919;28;20230;-71
2022/03/10 15:32:34;;;;;;;4.03;3.73;;;15.60;14.00;;;;;;10319576;28;20223;-71
2022/03/10 15:37:39;;;;;;;4.10;3.70;;;15.60;14.30;;;;;;10314729;28;20235;-71
2022/03/10 15:42:43;;;;;;;3.40;3.20;;;15.60;14.00;;;;;;10318177;28;20234;-71
2022/03/10 15:47:47;;;;;;;3.70;3.33;;;15.60;14.00;;;;;;10322347;28;20867;-71
2022/03/10 15:52:55;;;;;;;3.37;3.07;;;15.60;14.00;;;;;;10318883;28;20223;-71
2022/03/10 15:57:59;;;;;;;2.97;2.77;;;15.60;13.90;;;;;;10323759;28;20230;-70
2022/03/10 16:03:02;;;;;;;3.97;3.57;;;15.50;14.30;;;;;;10318045;28;20231;-71
2022/03/10 16:08:07;;;;;;;4.20;3.87;;;15.50;14.10;;;;;;10312013;28;20888;-71
2022/03/10 16:13:10;;;;;;;4.27;3.87;;;15.40;14.30;;;;;;10316692;28;20231;-71
2022/03/10 16:18:14;;;;;;;4.83;4.20;;;15.40;14.50;;;;;;10320576;28;20254;-71
2022/03/10 16:23:18;;;;;;;4.83;3.67;;;15.30;14.60;;;;;;10315549;28;20224;-71
2022/03/10 16:28:22;;;;;;;4.80;3.73;;;15.30;14.30;;;;;;10317692;28;20593;-71
2022/03/10 16:33:26;;;;;;;4.43;3.93;;;15.30;14.50;;;;;;10318806;28;20226;-70
2022/03/10 16:38:32;;;;;;;3.40;3.10;;;15.20;14.30;;;;;;10316165;28;20231;-70
2022/03/10 16:43:36;;;;;;;4.13;3.67;;;15.10;14.10;;;;;;10301454;28;20574;-70
2022/03/10 16:48:39;;;;;;;3.90;3.60;;;15.00;14.40;;;;;;10309371;28;20222;-70
2022/03/10 16:53:46;;;;;;;3.97;3.63;;;15.00;14.60;;;;;;10303472;28;20680;-70
2022/03/10 16:58:49;;;;;;;5.17;4.70;;;14.80;14.40;;;;;;10306165;28;20605;-70
2022/03/10 17:03:52;;;;;;;4.83;4.43;;;14.70;14.50;;;;;;10308023;28;20225;-70
2022/03/10 17:08:57;;;;;;;4.57;4.17;;;14.60;14.40;;;;;;10307232;28;20258;-70
2022/03/10 17:14:00;;;;;;;4.40;4.00;;;14.50;14.30;;;;;;10307746;28;20228;-70
2022/03/10 17:19:05;;;;;;;7.47;4.97;;;14.40;14.50;;;;;;10309865;28;20230;-70
2022/03/10 17:24:10;;;;;;;4.77;4.33;;;14.30;14.60;;;;;;10309654;28;20593;-70
2022/03/10 17:29:14;;;;;;;7.40;5.07;;;14.20;14.40;;;;;;10308442;28;20237;-71
2022/03/10 17:34:18;;;;;;;4.20;3.80;;;14.10;14.60;;;;;;10308859;28;20224;-70
2022/03/10 17:39:22;;;;;;;4.10;3.70;;;14.00;14.60;;;;;;10304899;28;20233;-70
2022/03/10 17:44:25;;;;;;;3.93;3.53;;;13.90;14.50;;;;;;10307773;28;20235;-71
2022/03/10 17:49:29;;;;;;;6.10;3.97;;;13.90;14.70;;;;;;10306351;28;20234;-70
2022/03/10 17:54:33;;;;;;;4.63;4.17;;;13.80;14.70;;;;;;10308058;28;20230;-70
2022/03/10 17:59:36;;;;;;;5.67;4.93;;;13.70;14.50;;;;;;10304522;28;20602;-70
2022/03/10 18:04:39;;;;;;;5.20;4.70;;;13.60;14.70;;;;;;10302673;28;20238;-70
2022/03/10 18:09:47;;;;;;;4.73;3.97;;;13.60;14.80;;;;;;10305672;28;20315;-71
2022/03/10 18:14:53;;;;;;;4.70;3.67;;;13.50;14.80;;;;;;10304981;28;20233;-70
2022/03/10 18:19:56;;;;;;;4.00;3.60;;;13.40;14.90;;;;;;10310126;28;20226;-70
2022/03/10 18:25:01;;;;;;;3.97;3.60;;;13.30;14.90;;;;;;10306696;28;20627;-70
2022/03/10 18:30:08;;;;;;;5.30;4.30;;;13.10;14.90;;;;;;10310324;28;20223;-70
2022/03/10 18:35:12;;;;;;;4.90;4.50;;;13.00;15.00;;;;;;10306213;28;20226;-70
2022/03/10 18:40:17;;;;;;;5.13;4.50;;;12.90;14.90;;;;;;10313411;28;20715;-70
2022/03/10 18:45:20;;;;;;;4.77;4.27;;;12.70;14.90;;;;;;10313030;28;20235;-70
2022/03/10 18:50:23;;;;;;;4.80;4.40;;;12.60;15.10;;;;;;10304704;28;20226;-70
2022/03/10 18:55:28;;;;;;;6.40;5.80;;;12.50;15.00;;;;;;10303818;28;20268;-71
2022/03/10 19:00:32;;;;;;;6.43;5.80;;;12.40;15.10;;;;;;10306121;28;20250;-72
2022/03/10 19:05:36;;;;;;;5.73;5.17;;;12.20;15.20;;;;;;10307033;28;20231;-70
2022/03/10 19:10:40;;;;;;;5.90;5.30;;;12.10;15.30;;;;;;10306527;28;20227;-69
2022/03/10 19:15:45;;;;;;;5.90;5.40;;;12.00;15.40;;;;;;10294101;28;20223;-72
2022/03/10 19:20:48;;;;;;;5.97;5.40;;;11.90;15.60;;;;;;10298490;28;20320;-69
2022/03/10 19:25:53;;;;;;;20.13;18.03;;;11.80;15.70;;;;;;10300739;28;20244;-69
2022/03/10 19:30:56;;;;;;;9.77;8.87;;;11.70;15.90;;;;;;10297941;28;20257;-71
2022/03/10 19:36:00;;;;;;;11.00;7.50;;;11.60;15.90;;;;;;10297647;28;20459;-69
2022/03/10 19:41:04;;;;;;;7.57;6.43;;;11.50;16.00;;;;;;10293228;28;20229;-69
2022/03/10 19:46:08;;;;;;;7.23;6.53;;;11.50;16.20;;;;;;10295816;28;20236;-72
2022/03/10 19:51:12;;;;;;;6.40;5.73;;;11.40;16.10;;;;;;10293706;28;20684;-72
2022/03/10 19:56:18;;;;;;;6.83;6.10;;;11.40;16.30;;;;;;10296769;28;20235;-72
2022/03/10 20:01:21;;;;;;;7.60;6.90;;;11.30;16.50;;;;;;10295439;28;20250;-72
2022/03/10 20:06:24;;;;;;;9.60;8.60;;;11.10;16.40;;;;;;10291886;28;20704;-71
2022/03/10 20:11:29;;;;;;;11.70;7.33;;;11.20;16.70;;;;;;10293775;28;21015;-71
2022/03/10 20:16:34;;;;;;;8.40;7.60;;;11.10;16.80;;;;;;10300260;28;20239;-72
2022/03/10 20:21:39;;;;;;;9.60;7.77;;;11.00;16.80;;;;;;10307849;28;20238;-72
2022/03/10 20:26:43;;;;;;;9.93;8.47;;;11.00;17.00;;;;;;10305183;28;20667;-71
2022/03/10 20:31:46;;;;;;;9.90;8.10;;;10.90;17.20;;;;;;10303811;28;20231;-72
2022/03/10 20:36:50;;;;;;;10.13;8.83;;;10.80;17.40;;;;;;10302365;28;20241;-70
2022/03/10 20:41:54;;;;;;;10.53;8.73;;;10.70;17.70;;;;;;10302964;28;20241;-70
2022/03/10 20:46:57;;;;;;;10.63;9.20;;;10.50;17.80;;;;;;10304033;28;20377;-70
2022/03/10 20:52:01;;;;;;;12.27;10.57;;;10.50;18.10;;;;;;10299470;28;20568;-70
2022/03/10 20:57:06;;;;;;;12.93;11.50;;;10.30;18.10;;;;;;10300354;28;20703;-69
2022/03/10 21:02:10;;;;;;;12.73;11.37;;;10.20;18.70;;;;;;10297029;28;20227;-69
2022/03/10 21:07:14;;;;;;;14.27;12.77;;;10.10;18.60;;;;;;10301300;28;20321;-71
2022/03/10 21:12:18;;;;;;;16.73;13.90;;;10.00;18.50;;;;;;10300557;28;20242;-71
2022/03/10 21:17:22;;;;;;;16.47;13.90;;;9.90;19.20;;;;;;10300193;28;20243;-72
2022/03/10 21:22:25;;;;;;;16.57;14.27;;;9.80;19.10;;;;;;10305891;28;20259;-71
2022/03/10 21:27:30;;;;;;;16.63;14.83;;;9.60;19.50;;;;;;10311013;28;20321;-70
2022/03/10 21:32:33;;;;;;;17.80;14.80;;;9.40;20.10;;;;;;10308902;28;20250;-70
2022/03/10 21:37:37;;;;;;;16.53;14.33;;;9.30;20.10;;;;;;10302586;28;20245;-71
2022/03/10 21:42:41;;;;;;;16.87;15.17;;;9.10;19.90;;;;;;10299567;28;20230;-70
2022/03/10 21:47:44;;;;;;;19.90;15.93;;;9.10;20.10;;;;;;10299935;28;20238;-70
2022/03/10 21:52:48;;;;;;;16.63;14.93;;;9.00;20.00;;;;;;10299673;28;20233;-70
2022/03/10 21:57:53;;;;;;;17.17;15.07;;;8.90;20.10;;;;;;10298021;28;20748;-70
2022/03/10 22:02:56;;;;;;;18.23;16.00;;;8.80;20.20;;;;;;10304744;28;20227;-69
2022/03/10 22:08:05;;;;;;;16.73;14.97;;;8.70;20.40;;;;;;10295974;28;20234;-69
2022/03/10 22:13:10;;;;;;;19.57;15.87;;;8.60;20.20;;;;;;10296022;28;20241;-70
2022/03/10 22:18:13;;;;;;;18.80;15.13;;;8.50;20.50;;;;;;10293748;28;20227;-69
2022/03/10 22:23:16;;;;;;;16.50;14.70;;;8.30;20.20;;;;;;10299081;28;20612;-71
2022/03/10 22:28:21;;;;;;;15.93;14.27;;;8.30;20.30;;;;;;10301650;28;20737;-71
2022/03/10 22:33:24;;;;;;;17.23;15.03;;;8.20;20.50;;;;;;10300311;28;20259;-71
2022/03/10 22:38:28;;;;;;;17.10;14.20;;;8.10;20.10;;;;;;10303082;28;20305;-71
2022/03/10 22:43:34;;;;;;;16.23;13.50;;;8.10;20.00;;;;;;10300577;28;20239;-71
2022/03/10 22:48:37;;;;;;;14.57;13.07;;;8.00;20.10;;;;;;10303831;28;20893;-69
2022/03/10 22:59:02;;;;;;;14.87;13.33;;;7.90;19.90;;;;;;10296242;28;20312;-70
2022/03/10 23:09:23;;;;;;;12.87;11.53;;;7.80;19.70;;;;;;10294101;28;20231;-69
2022/03/10 23:14:27;;;;;;;11.63;10.43;;;7.70;19.50;;;;;;10302630;28;20691;-69
2022/03/10 23:19:32;;;;;;;10.47;9.47;;;7.60;19.30;;;;;;10305947;28;20233;-69
2022/03/10 23:24:36;;;;;;;10.43;8.77;;;7.60;19.00;;;;;;10300648;28;20223;-70
2022/03/10 23:29:41;;;;;;;9.57;7.93;;;7.60;18.80;;;;;;10298175;28;20231;-70
2022/03/10 23:34:47;;;;;;;7.97;7.10;;;7.50;18.50;;;;;;10300537;28;20319;-69
2022/03/10 23:39:51;;;;;;;7.90;6.67;;;7.40;18.40;;;;;;10297912;28;20602;-69
2022/03/10 23:44:55;;;;;;;7.87;5.97;;;7.30;18.30;;;;;;10299043;28;20237;-69
2022/03/10 23:50:00;;;;;;;7.47;6.10;;;7.20;18.20;;;;;;10307731;28;20227;-70
2022/03/10 23:55:03;;;;;;;6.33;5.50;;;7.10;18.10;;;;;;10304574;28;20573;-71
